Time;durP1;ratioP1;P1;durP2;ratioP2;P2;SDS_P1;SDS_P2;PMS_P1;PMS_P2;Temp;Humidity;BMP_temperature;BMP_pressure;BME280_temperature;BME280_humidity;BME280_pressure;Samples;Min_cycle;Max_cycle;Signal;HPM_P1;HPM_P2
2021/05/29 00:02:15;;;;;;;15.18;6.03;;;11.20;99.90;;;;;;5088170;28;20051;-79
2021/05/29 00:04:42;;;;;;;21.30;6.55;;;11.10;99.90;;;;;;5070888;28;20047;-81
2021/05/29 00:07:08;;;;;;;12.27;6.43;;;11.20;99.90;;;;;;5108007;28;20075;-79
2021/05/29 00:09:36;;;;;;;19.45;7.03;;;11.10;99.90;;;;;;5083849;28;20044;-80
2021/05/29 00:12:05;;;;;;;17.15;6.38;;;11.20;99.90;;;;;;5098652;28;20048;-80
2021/05/29 00:14:33;;;;;;;18.05;6.95;;;11.10;99.90;;;;;;5089194;28;20169;-79
2021/05/29 00:16:58;;;;;;;17.50;6.47;;;11.20;99.90;;;;;;5088490;28;20773;-79
2021/05/29 00:19:24;;;;;;;10.82;5.35;;;11.10;99.90;;;;;;5071151;28;20072;-79
2021/05/29 00:21:50;;;;;;;15.98;6.65;;;11.10;99.90;;;;;;5048606;28;20407;-79
2021/05/29 00:24:16;;;;;;;16.15;5.85;;;11.10;99.90;;;;;;5095733;28;20068;-79
2021/05/29 00:26:42;;;;;;;19.90;7.40;;;11.10;99.90;;;;;;5056099;28;20040;-79
2021/05/29 00:29:08;;;;;;;14.05;5.38;;;11.20;99.90;;;;;;5070204;28;20381;-79
2021/05/29 00:31:34;;;;;;;19.23;6.78;;;11.20;99.90;;;;;;5062283;28;20044;-79
2021/05/29 00:34:00;;;;;;;20.88;6.03;;;11.20;99.90;;;;;;5062417;28;20040;-79
2021/05/29 00:36:26;;;;;;;13.70;5.88;;;11.20;99.90;;;;;;5077249;28;20036;-79
2021/05/29 00:38:51;;;;;;;16.95;6.85;;;11.20;99.90;;;;;;5090305;28;20130;-79
2021/05/29 00:41:18;;;;;;;19.50;7.32;;;11.20;99.90;;;;;;5082904;28;20065;-80
2021/05/29 00:43:45;;;;;;;12.02;5.22;;;11.20;99.90;;;;;;5065061;28;20040;-79
2021/05/29 00:46:11;;;;;;;17.23;7.10;;;11.20;99.90;;;;;;5110609;28;20055;-79
2021/05/29 00:48:38;;;;;;;16.60;6.72;;;11.20;99.90;;;;;;5113121;28;20059;-80
2021/05/29 00:51:06;;;;;;;17.48;7.63;;;11.20;99.90;;;;;;5087120;28;20036;-79
2021/05/29 00:53:33;;;;;;;15.73;7.05;;;11.10;99.90;;;;;;5104907;28;20043;-79
2021/05/29 00:56:01;;;;;;;20.30;6.68;;;11.10;99.90;;;;;;5112282;28;20059;-80
2021/05/29 00:58:28;;;;;;;18.67;7.07;;;11.10;99.90;;;;;;5112919;28;20090;-81
2021/05/29 01:00:55;;;;;;;21.75;6.72;;;11.20;99.90;;;;;;5106087;28;20097;-79
2021/05/29 01:03:21;;;;;;;23.23;7.45;;;11.10;99.90;;;;;;5093770;28;20510;-79
2021/05/29 01:05:48;;;;;;;18.92;7.03;;;11.20;99.90;;;;;;5065970;28;20044;-80
2021/05/29 01:08:14;;;;;;;18.23;7.68;;;11.10;99.90;;;;;;5054917;28;20418;-79
2021/05/29 01:10:41;;;;;;;22.83;6.82;;;11.10;99.90;;;;;;5070312;28;20095;-79
2021/05/29 01:13:09;;;;;;;19.95;7.53;;;11.10;99.90;;;;;;5071246;28;20079;-80
2021/05/29 01:15:42;;;;;;;15.27;6.93;;;11.10;99.90;;;;;;5052168;28;20075;-79
2021/05/29 01:18:12;;;;;;;15.73;7.38;;;11.10;99.90;;;;;;5057897;28;20898;-79
2021/05/29 01:20:39;;;;;;;10.77;5.90;;;11.10;99.90;;;;;;5064093;28;20465;-79
2021/05/29 01:23:06;;;;;;;19.98;6.57;;;11.10;99.90;;;;;;5047626;28;20125;-79
2021/05/29 01:25:37;;;;;;;16.38;5.95;;;11.10;99.90;;;;;;5080024;28;20040;-80
2021/05/29 01:28:14;;;;;;;17.48;6.72;;;11.00;99.90;;;;;;5070808;28;20040;-80
2021/05/29 01:30:43;;;;;;;16.75;6.82;;;11.10;99.90;;;;;;5067028;28;20056;-79
2021/05/29 01:33:12;;;;;;;17.20;6.13;;;11.10;99.90;;;;;;5072300;28;20036;-79
2021/05/29 01:35:38;;;;;;;13.93;6.35;;;11.00;99.90;;;;;;5072635;28;20524;-79
2021/05/29 01:38:05;;;;;;;24.67;7.88;;;11.00;99.90;;;;;;5070747;28;20472;-79
2021/05/29 01:40:33;;;;;;;12.88;6.03;;;11.00;99.90;;;;;;5063228;28;20063;-80
2021/05/29 01:42:59;;;;;;;15.85;7.13;;;11.00;99.90;;;;;;5075085;28;20044;-80
2021/05/29 01:45:29;;;;;;;19.90;7.07;;;11.00;99.90;;;;;;5028468;28;20044;-79
2021/05/29 01:47:55;;;;;;;17.52;7.20;;;11.00;99.90;;;;;;5090557;28;20550;-81
2021/05/29 01:50:22;;;;;;;20.85;8.70;;;11.00;99.90;;;;;;5071563;28;20714;-79
2021/05/29 01:52:55;;;;;;;19.35;7.25;;;11.00;99.90;;;;;;5071515;28;20044;-79
2021/05/29 01:55:24;;;;;;;16.00;7.28;;;11.00;99.90;;;;;;5070726;28;20036;-79
2021/05/29 01:57:51;;;;;;;16.50;6.55;;;11.00;99.90;;;;;;5071323;28;20059;-79
2021/05/29 02:00:18;;;;;;;19.38;7.68;;;11.00;99.90;;;;;;5073406;28;20055;-79
2021/05/29 02:02:44;;;;;;;15.02;6.43;;;11.00;99.90;;;;;;5059293;28;20063;-79
2021/05/29 02:05:25;;;;;;;20.65;6.95;;;11.00;99.90;;;;;;5052339;28;20056;-79
2021/05/29 02:07:51;;;;;;;12.88;6.63;;;11.00;99.90;;;;;;5088327;28;20182;-81
2021/05/29 02:10:24;;;;;;;17.40;7.65;;;10.90;99.90;;;;;;5090651;28;20123;-79
2021/05/29 02:12:54;;;;;;;12.52;6.38;;;10.90;99.90;;;;;;5073202;28;20048;-81
2021/05/29 02:15:22;;;;;;;15.02;6.05;;;10.90;99.90;;;;;;5091528;28;20787;-79
2021/05/29 02:17:51;;;;;;;10.48;5.75;;;11.00;99.90;;;;;;5072970;28;20044;-79
2021/05/29 02:20:27;;;;;;;14.25;6.50;;;11.00;99.90;;;;;;5072890;28;20048;-80
2021/05/29 02:22:53;;;;;;;13.15;5.95;;;11.00;99.90;;;;;;5075091;28;20475;-81
2021/05/29 02:25:19;;;;;;;13.93;5.45;;;11.00;99.90;;;;;;5100629;28;20046;-79
2021/05/29 02:27:45;;;;;;;12.05;6.07;;;11.00;99.90;;;;;;5091545;28;20127;-80
2021/05/29 02:30:11;;;;;;;13.48;6.53;;;11.00;99.90;;;;;;5092328;28;20168;-80
2021/05/29 02:32:37;;;;;;;9.50;6.25;;;11.00;99.90;;;;;;5095177;28;20048;-80
2021/05/29 02:35:03;;;;;;;16.92;6.90;;;11.00;99.90;;;;;;5078300;28;20048;-80
2021/05/29 02:37:29;;;;;;;6.50;5.80;;;10.90;99.90;;;;;;5092996;28;20050;-80
2021/05/29 02:39:55;;;;;;;8.30;4.55;;;10.90;99.90;;;;;;5086833;28;20159;-82
2021/05/29 02:42:21;;;;;;;9.10;5.25;;;10.90;99.90;;;;;;5072717;28;20044;-80
2021/05/29 02:44:47;;;;;;;6.57;4.25;;;11.00;99.90;;;;;;5090571;28;20044;-80
2021/05/29 02:47:13;;;;;;;7.50;4.05;;;10.90;99.90;;;;;;5068269;28;20044;-79
2021/05/29 02:49:40;;;;;;;6.07;3.50;;;11.00;99.90;;;;;;5096151;28;20055;-80
2021/05/29 02:52:06;;;;;;;6.38;4.07;;;11.00;99.90;;;;;;5061731;28;20391;-79
2021/05/29 02:54:33;;;;;;;5.07;3.92;;;11.00;99.90;;;;;;5073817;28;20044;-79
2021/05/29 02:56:59;;;;;;;4.53;3.95;;;11.00;99.90;;;;;;5090188;28;20044;-80
2021/05/29 02:59:24;;;;;;;5.50;4.30;;;11.00;99.90;;;;;;5092593;28;20487;-79
2021/05/29 03:01:50;;;;;;;7.05;3.90;;;11.00;99.90;;;;;;5075157;28;20051;-81
2021/05/29 03:04:16;;;;;;;5.78;3.70;;;11.00;99.90;;;;;;5054915;28;20337;-80
2021/05/29 03:06:42;;;;;;;8.20;3.78;;;11.00;99.90;;;;;;5066889;28;20564;-80
2021/05/29 03:09:08;;;;;;;5.80;3.35;;;11.10;99.90;;;;;;5053852;28;20123;-79
2021/05/29 03:11:41;;;;;;;4.82;4.15;;;11.10;99.90;;;;;;5062334;28;20044;-80
2021/05/29 03:14:08;;;;;;;9.10;3.50;;;11.00;99.90;;;;;;5055713;28;20059;-80
2021/05/29 03:16:34;;;;;;;4.85;3.38;;;11.00;99.90;;;;;;5071620;28;20085;-79
2021/05/29 03:19:00;;;;;;;6.78;3.53;;;11.00;99.90;;;;;;5074446;28;20132;-80
2021/05/29 03:21:25;;;;;;;4.18;3.45;;;11.00;99.90;;;;;;5069610;28;20159;-79
2021/05/29 03:23:51;;;;;;;7.82;3.60;;;11.00;99.90;;;;;;5047408;28;20480;-79
2021/05/29 03:26:17;;;;;;;7.25;3.72;;;11.00;99.90;;;;;;5070633;28;20464;-80
2021/05/29 03:28:43;;;;;;;7.53;3.83;;;11.00;99.90;;;;;;5051488;28;20052;-79
2021/05/29 03:31:09;;;;;;;8.57;3.90;;;11.00;99.90;;;;;;5072374;28;20040;-80
2021/05/29 03:33:35;;;;;;;9.93;4.57;;;11.00;99.90;;;;;;5023720;28;20476;-80
2021/05/29 03:36:00;;;;;;;6.57;4.13;;;11.00;99.90;;;;;;5044903;28;20045;-81
2021/05/29 03:38:26;;;;;;;8.07;4.28;;;11.00;99.90;;;;;;5068276;28;20044;-80
2021/05/29 03:40:52;;;;;;;8.13;4.22;;;11.00;99.90;;;;;;5059581;28;20471;-80
2021/05/29 03:43:18;;;;;;;5.20;2.90;;;11.00;99.90;;;;;;5052289;28;20028;-79
2021/05/29 03:45:44;;;;;;;7.00;3.42;;;11.00;99.90;;;;;;5056881;28;20071;-80
2021/05/29 03:48:09;;;;;;;6.32;3.20;;;11.00;99.90;;;;;;5049949;28;20060;-80
2021/05/29 03:50:38;;;;;;;6.60;2.80;;;10.90;99.90;;;;;;5055636;28;20040;-80
2021/05/29 03:53:06;;;;;;;6.18;2.90;;;10.90;99.90;;;;;;5068385;28;20090;-80
2021/05/29 03:55:33;;;;;;;7.97;3.08;;;10.90;99.90;;;;;;5042107;28;20039;-80
2021/05/29 03:57:59;;;;;;;5.15;3.45;;;10.90;99.90;;;;;;5057948;28;20119;-82
2021/05/29 04:00:25;;;;;;;10.93;4.15;;;10.90;99.90;;;;;;5056107;28;20400;-80
2021/05/29 04:02:51;;;;;;;4.53;3.28;;;10.90;99.90;;;;;;5053430;28;20052;-80
2021/05/29 04:05:18;;;;;;;2.97;2.25;;;10.90;99.90;;;;;;5064146;28;20074;-80
2021/05/29 04:07:45;;;;;;;4.05;2.88;;;10.90;99.90;;;;;;5071435;28;20056;-80
2021/05/29 04:10:18;;;;;;;9.07;3.03;;;10.90;99.90;;;;;;5053632;28;20445;-80
2021/05/29 04:12:44;;;;;;;7.50;3.33;;;10.90;99.90;;;;;;5089411;28;20044;-80
2021/05/29 04:15:11;;;;;;;4.78;3.53;;;10.90;99.90;;;;;;5044856;28;20036;-79
2021/05/29 04:17:38;;;;;;;5.03;3.03;;;10.90;99.90;;;;;;5069752;28;20051;-78
2021/05/29 04:20:06;;;;;;;3.15;2.58;;;10.90;99.90;;;;;;5058021;28;20048;-81
2021/05/29 04:22:31;;;;;;;5.10;3.47;;;10.90;99.90;;;;;;5075123;28;20044;-79
2021/05/29 04:24:57;;;;;;;4.85;2.92;;;10.90;99.90;;;;;;5062066;28;20059;-79
2021/05/29 04:27:24;;;;;;;3.75;3.20;;;10.90;99.90;;;;;;5092190;28;20590;-79
2021/05/29 04:29:51;;;;;;;5.22;3.38;;;10.90;99.90;;;;;;5057317;28;20527;-79
2021/05/29 04:32:17;;;;;;;7.22;4.05;;;10.90;99.90;;;;;;5102794;28;20096;-78
2021/05/29 04:34:43;;;;;;;6.22;3.22;;;10.90;99.90;;;;;;5077486;28;20052;-79
2021/05/29 04:37:15;;;;;;;6.35;2.92;;;10.90;99.90;;;;;;5096979;28;20047;-80
2021/05/29 04:39:42;;;;;;;5.57;2.60;;;10.90;99.90;;;;;;5094552;28;20131;-80
2021/05/29 04:42:08;;;;;;;3.50;2.50;;;10.90;99.90;;;;;;5078344;28;20040;-79
2021/05/29 04:44:35;;;;;;;2.55;2.13;;;10.90;99.90;;;;;;5093184;28;20612;-80
2021/05/29 04:47:02;;;;;;;6.88;2.22;;;10.90;99.90;;;;;;5061098;28;20411;-79
2021/05/29 04:49:29;;;;;;;5.25;2.80;;;10.90;99.90;;;;;;5057798;28;20063;-80
2021/05/29 04:51:57;;;;;;;3.15;2.53;;;10.90;99.90;;;;;;5073182;28;20098;-80
2021/05/29 04:54:23;;;;;;;10.00;2.42;;;10.90;99.90;;;;;;5092127;28;20139;-79
2021/05/29 04:56:49;;;;;;;6.82;2.58;;;10.90;99.90;;;;;;5074437;28;20074;-79
2021/05/29 04:59:15;;;;;;;2.88;2.50;;;11.00;99.90;;;;;;5092008;28;20052;-79
2021/05/29 05:01:41;;;;;;;11.43;2.97;;;11.00;99.90;;;;;;5079148;28;20078;-79
2021/05/29 05:04:07;;;;;;;4.68;2.55;;;11.00;99.90;;;;;;5059025;28;20067;-80
2021/05/29 05:06:33;;;;;;;5.68;3.20;;;11.00;99.90;;;;;;5063948;28;20044;-79
2021/05/29 05:08:59;;;;;;;5.13;3.28;;;11.10;99.90;;;;;;5075606;28;20044;-79
2021/05/29 05:11:25;;;;;;;4.60;3.17;;;11.10;99.90;;;;;;5104142;28;20494;-79
2021/05/29 05:13:51;;;;;;;6.20;3.90;;;11.10;99.90;;;;;;5087314;28;20043;-79
2021/05/29 05:16:18;;;;;;;3.40;3.10;;;11.10;99.90;;;;;;5087645;28;20073;-79
2021/05/29 05:18:45;;;;;;;5.05;2.88;;;11.10;99.90;;;;;;5092414;28;20040;-79
2021/05/29 05:21:11;;;;;;;3.83;2.17;;;11.10;99.90;;;;;;5072910;28;20039;-80
2021/05/29 05:23:37;;;;;;;7.32;2.33;;;11.10;99.90;;;;;;5093504;28;20036;-80
2021/05/29 05:26:04;;;;;;;4.47;2.42;;;11.10;99.90;;;;;;5092260;28;20050;-80
2021/05/29 05:28:30;;;;;;;3.65;2.42;;;11.20;99.90;;;;;;5068874;28;20032;-79
2021/05/29 05:30:59;;;;;;;3.83;2.05;;;11.20;99.90;;;;;;5098452;28;20372;-80
2021/05/29 05:33:26;;;;;;;4.10;2.20;;;11.20;99.90;;;;;;5095045;28;20028;-79
2021/05/29 05:35:53;;;;;;;4.68;2.50;;;11.20;99.90;;;;;;5077313;28;20073;-79
2021/05/29 05:38:19;;;;;;;6.72;2.83;;;11.30;99.90;;;;;;5092088;28;20130;-79
2021/05/29 05:40:45;;;;;;;8.43;2.90;;;11.30;99.90;;;;;;5101424;28;20073;-79
2021/05/29 05:43:11;;;;;;;3.05;2.35;;;11.40;99.90;;;;;;5070327;28;20044;-79
2021/05/29 05:45:38;;;;;;;3.67;2.35;;;11.40;99.90;;;;;;5066461;28;20043;-79
2021/05/29 05:48:05;;;;;;;5.55;2.38;;;11.40;99.90;;;;;;5094049;28;20499;-80
2021/05/29 05:50:31;;;;;;;4.90;2.80;;;11.50;99.90;;;;;;5086088;28;20161;-79
2021/05/29 05:52:57;;;;;;;4.03;2.45;;;11.50;99.90;;;;;;5093975;28;20504;-80
2021/05/29 05:55:23;;;;;;;5.10;2.38;;;11.50;99.90;;;;;;5068311;28;20130;-79
2021/05/29 05:57:49;;;;;;;3.30;2.35;;;11.50;99.90;;;;;;5067479;28;20065;-80
2021/05/29 06:00:18;;;;;;;8.38;3.50;;;11.60;99.90;;;;;;5110798;28;20102;-80
2021/05/29 06:02:46;;;;;;;5.80;2.90;;;11.60;99.90;;;;;;5092763;28;20081;-79
2021/05/29 06:05:15;;;;;;;5.03;3.10;;;11.70;99.90;;;;;;5092321;28;20495;-79
2021/05/29 06:07:41;;;;;;;4.57;2.95;;;11.80;99.90;;;;;;5072098;28;20416;-79
2021/05/29 06:10:08;;;;;;;5.82;3.45;;;11.80;99.90;;;;;;5085279;28;20056;-81
2021/05/29 06:12:37;;;;;;;7.93;3.60;;;11.90;99.90;;;;;;5072681;28;20036;-79
2021/05/29 06:20:48;;;;;;;8.23;3.17;;;12.00;99.90;;;;;;5073964;28;20186;-79
2021/05/29 06:23:14;;;;;;;4.53;2.30;;;12.10;99.90;;;;;;5090415;28;20047;-79
2021/05/29 06:25:41;;;;;;;5.45;3.13;;;12.10;99.90;;;;;;5091144;28;20040;-78
2021/05/29 06:28:07;;;;;;;4.57;2.60;;;12.10;99.90;;;;;;5090642;28;20509;-79
2021/05/29 06:30:33;;;;;;;4.07;2.45;;;12.20;99.90;;;;;;5065630;28;20047;-79
2021/05/29 06:32:59;;;;;;;4.13;2.97;;;12.30;99.90;;;;;;5094401;28;20055;-79
2021/05/29 06:35:25;;;;;;;5.70;2.67;;;12.40;99.90;;;;;;5064939;28;20043;-79
2021/05/29 06:37:51;;;;;;;3.42;1.77;;;12.50;99.90;;;;;;5074390;28;20039;-80
2021/05/29 06:40:17;;;;;;;3.80;2.38;;;12.40;99.90;;;;;;5089845;28;20086;-79
2021/05/29 06:42:43;;;;;;;5.63;2.40;;;12.50;99.90;;;;;;5072812;28;20098;-79
2021/05/29 06:45:10;;;;;;;3.92;2.08;;;12.50;99.90;;;;;;5069780;28;20044;-81
2021/05/29 06:47:37;;;;;;;3.58;2.35;;;12.60;99.90;;;;;;5071885;28;20044;-79
2021/05/29 06:50:05;;;;;;;4.80;2.00;;;12.60;99.90;;;;;;5072542;28;20574;-80
2021/05/29 06:52:32;;;;;;;3.83;2.30;;;12.50;99.90;;;;;;5071489;28;20124;-79
2021/05/29 07:00:19;;;;;;;4.72;2.78;;;12.70;99.90;;;;;;5090763;28;20123;-79
2021/05/29 07:02:44;;;;;;;5.82;3.15;;;12.70;99.90;;;;;;5072059;28;20510;-79
2021/05/29 07:05:11;;;;;;;9.23;3.55;;;12.70;99.90;;;;;;5105730;28;20047;-82
2021/05/29 07:07:39;;;;;;;6.25;2.80;;;12.80;99.90;;;;;;5074012;28;20126;-80
2021/05/29 07:10:06;;;;;;;4.68;2.90;;;12.70;99.90;;;;;;5089866;28;20494;-80
2021/05/29 07:12:32;;;;;;;5.90;2.47;;;12.80;99.90;;;;;;5089661;28;20160;-80
2021/05/29 07:14:58;;;;;;;2.55;1.85;;;12.80;99.90;;;;;;5071811;28;20799;-80
2021/05/29 07:17:30;;;;;;;5.47;3.08;;;12.90;99.90;;;;;;5074587;28;20050;-79
2021/05/29 07:19:57;;;;;;;5.85;2.50;;;12.80;99.90;;;;;;5061222;28;20049;-79
2021/05/29 07:22:23;;;;;;;4.05;2.55;;;12.90;99.90;;;;;;5070507;28;20039;-81
2021/05/29 07:24:49;;;;;;;5.57;2.45;;;13.00;99.90;;;;;;5083147;28;20052;-79
2021/05/29 07:27:15;;;;;;;5.65;2.20;;;13.00;99.90;;;;;;5089963;28;20515;-81
2021/05/29 07:29:40;;;;;;;4.07;2.10;;;13.00;99.90;;;;;;5070919;28;20036;-79
2021/05/29 07:32:07;;;;;;;5.43;2.40;;;13.10;99.90;;;;;;5069291;28;20048;-79
2021/05/29 07:34:32;;;;;;;7.10;3.10;;;13.20;99.90;;;;;;5105559;28;20049;-80
2021/05/29 07:36:58;;;;;;;5.25;2.30;;;13.30;99.90;;;;;;5072958;28;20040;-80
2021/05/29 07:39:24;;;;;;;4.93;2.60;;;13.40;99.90;;;;;;5062049;28;20080;-80
2021/05/29 07:41:50;;;;;;;4.93;1.92;;;13.40;99.90;;;;;;5089142;28;20048;-80
2021/05/29 07:44:15;;;;;;;5.45;2.38;;;13.50;99.90;;;;;;5090808;28;20047;-82
2021/05/29 07:46:43;;;;;;;3.25;2.30;;;13.40;99.90;;;;;;5074070;28;20430;-79
2021/05/29 07:49:10;;;;;;;4.18;2.03;;;13.40;99.90;;;;;;5077406;28;20624;-79
2021/05/29 07:51:39;;;;;;;2.67;2.20;;;13.40;99.90;;;;;;5055538;28;20043;-78
2021/05/29 07:54:20;;;;;;;3.15;2.67;;;13.50;99.90;;;;;;5071578;28;20044;-79
2021/05/29 07:57:49;;;;;;;4.97;2.53;;;13.40;99.90;;;;;;5006500;28;20058;-81
2021/05/29 08:01:11;;;;;;;5.90;2.75;;;13.40;99.90;;;;;;5077411;28;20754;-81
2021/05/29 08:04:00;;;;;;;3.85;2.53;;;13.30;99.90;;;;;;5043297;28;20484;-80
2021/05/29 08:07:11;;;;;;;3.10;2.33;;;13.40;99.90;;;;;;5010542;28;20052;-80
2021/05/29 08:14:11;;;;;;;5.13;1.80;;;13.50;99.90;;;;;;5003126;28;20050;-81
2021/05/29 08:24:41;;;;;;;3.10;1.95;;;13.70;99.90;;;;;;4884955;28;21049;-80
2021/05/29 08:28:32;;;;;;;6.73;2.63;;;13.70;99.90;;;;;;4871263;29;20138;-80
2021/05/29 08:31:58;;;;;;;4.40;2.67;;;13.70;99.90;;;;;;4871573;29;20619;-80
2021/05/29 08:39:20;;;;;;;4.15;1.80;;;13.70;99.90;;;;;;5014735;28;20234;-81
2021/05/29 08:42:18;;;;;;;6.25;2.67;;;13.70;99.90;;;;;;4901973;29;20143;-81
2021/05/29 08:45:44;;;;;;;3.58;3.05;;;13.70;99.90;;;;;;4894755;29;20055;-81
2021/05/29 08:56:30;;;;;;;6.05;3.35;;;13.90;99.90;;;;;;4947100;28;20106;-81
2021/05/29 09:00:24;;;;;;;5.97;2.30;;;13.90;99.90;;;;;;4908909;29;20149;-81
2021/05/29 09:22:11;;;;;;;2.33;2.13;;;14.20;99.90;;;;;;4748200;30;20472;-82
2021/05/29 09:29:28;;;;;;;4.35;2.20;;;14.40;99.90;;;;;;4691224;30;20065;-81
2021/05/29 09:40:07;;;;;;;6.30;2.50;;;14.60;99.90;;;;;;4808488;29;20454;-80
2021/05/29 09:42:52;;;;;;;3.42;2.50;;;14.60;99.90;;;;;;4826502;29;20485;-81
2021/05/29 09:49:28;;;;;;;5.63;2.50;;;14.70;99.90;;;;;;4846750;29;20058;-81
2021/05/29 09:53:10;;;;;;;4.05;2.47;;;14.60;99.90;;;;;;4855820;29;20117;-81
2021/05/29 09:56:47;;;;;;;3.20;2.20;;;14.70;99.90;;;;;;4819194;29;20062;-81
2021/05/29 10:00:24;;;;;;;4.93;2.47;;;14.50;99.90;;;;;;4811209;29;20065;-81
2021/05/29 10:03:46;;;;;;;4.38;2.70;;;14.60;99.90;;;;;;4805858;29;20110;-81
2021/05/29 10:07:26;;;;;;;3.15;2.83;;;14.70;99.90;;;;;;4829072;29;20101;-82
2021/05/29 10:10:38;;;;;;;8.00;2.70;;;14.70;99.90;;;;;;4889344;29;20432;-82
2021/05/29 10:14:07;;;;;;;4.57;2.65;;;14.80;99.90;;;;;;4906413;29;20112;-80
2021/05/29 10:17:56;;;;;;;4.32;2.10;;;15.00;99.90;;;;;;4884450;29;20087;-79
2021/05/29 10:21:13;;;;;;;4.30;3.08;;;15.10;99.90;;;;;;4822249;29;20514;-79
2021/05/29 10:24:07;;;;;;;4.85;2.90;;;14.90;99.90;;;;;;4857655;29;20535;-80
2021/05/29 10:27:26;;;;;;;4.50;2.92;;;14.70;99.90;;;;;;4879483;29;20616;-79
2021/05/29 10:34:23;;;;;;;6.45;2.30;;;14.60;99.90;;;;;;4883806;29;20269;-82
2021/05/29 10:38:00;;;;;;;7.45;2.38;;;14.40;99.90;;;;;;4889741;29;20064;-81
2021/05/29 10:41:41;;;;;;;9.77;1.77;;;14.30;99.90;;;;;;4871937;29;20092;-82
2021/05/29 10:48:31;;;;;;;3.17;1.65;;;13.90;99.90;;;;;;4872993;29;20056;-81
2021/05/29 10:55:16;;;;;;;4.47;1.75;;;13.90;99.90;;;;;;4777612;29;20063;-81
2021/05/29 11:02:08;;;;;;;3.63;1.42;;;13.60;99.90;;;;;;4784733;29;20055;-82
2021/05/29 11:05:32;;;;;;;10.80;2.22;;;13.40;99.90;;;;;;4782561;29;20192;-81
2021/05/29 11:16:12;;;;;;;2.85;1.35;;;13.50;99.90;;;;;;4884215;29;20212;-81
2021/05/29 11:19:40;;;;;;;7.50;1.80;;;13.50;99.90;;;;;;4890104;29;20060;-81
2021/05/29 11:26:24;;;;;;;2.88;1.77;;;13.70;99.90;;;;;;4917440;29;20910;-82
2021/05/29 11:29:41;;;;;;;4.30;1.55;;;13.80;99.90;;;;;;4930061;28;20522;-81
2021/05/29 11:36:44;;;;;;;2.47;1.70;;;14.10;99.90;;;;;;4996732;28;20449;-80
2021/05/29 11:47:38;;;;;;;5.15;2.22;;;14.30;99.90;;;;;;4911394;29;20094;-82
2021/05/29 12:02:21;;;;;;;2.10;1.92;;;14.10;99.90;;;;;;4868878;29;20413;-80
2021/05/29 12:05:59;;;;;;;4.65;1.92;;;14.30;99.90;;;;;;4851515;29;20056;-81
2021/05/29 12:09:43;;;;;;;3.08;2.20;;;14.60;99.90;;;;;;4835745;29;20548;-80
2021/05/29 12:17:19;;;;;;;5.50;1.90;;;14.60;99.90;;;;;;4832471;29;20152;-82
2021/05/29 12:20:14;;;;;;;5.10;2.20;;;14.60;99.90;;;;;;4879495;28;20534;-80
2021/05/29 12:23:10;;;;;;;3.53;2.28;;;14.50;99.90;;;;;;4966509;28;20042;-81
2021/05/29 12:25:52;;;;;;;2.78;2.58;;;14.30;99.90;;;;;;4988564;28;20625;-82
2021/05/29 12:29:25;;;;;;;3.97;2.55;;;14.10;99.90;;;;;;4975780;28;20370;-82
2021/05/29 12:32:57;;;;;;;6.85;2.40;;;14.00;99.90;;;;;;4864557;29;20777;-82
2021/05/29 12:36:40;;;;;;;3.33;2.40;;;13.90;99.90;;;;;;4922722;29;20063;-80
2021/05/29 12:40:10;;;;;;;5.35;2.53;;;14.00;99.90;;;;;;4885598;29;20057;-81
2021/05/29 12:51:10;;;;;;;5.97;3.40;;;14.10;99.90;;;;;;4893996;29;20326;-82
2021/05/29 13:02:07;;;;;;;3.17;2.05;;;14.00;99.90;;;;;;4868087;29;20069;-81
2021/05/29 13:09:09;;;;;;;3.40;1.80;;;13.90;99.90;;;;;;4896845;29;20562;-82
2021/05/29 13:16:11;;;;;;;2.85;1.77;;;13.60;99.90;;;;;;4879076;29;20056;-81
2021/05/29 13:20:08;;;;;;;2.83;1.80;;;14.00;99.90;;;;;;4894021;29;20047;-80
2021/05/29 13:23:41;;;;;;;3.90;1.80;;;14.60;99.90;;;;;;4895993;29;20092;-81
2021/05/29 13:34:10;;;;;;;3.83;1.92;;;14.30;99.90;;;;;;4875473;29;20048;-80
2021/05/29 13:37:17;;;;;;;1.45;1.30;;;14.50;99.90;;;;;;4835906;29;20066;-81
2021/05/29 13:40:49;;;;;;;2.85;1.35;;;14.60;99.90;;;;;;4884532;29;20167;-81
2021/05/29 13:43:15;;;;;;;1.13;1.08;;;14.60;99.90;;;;;;4881182;29;20056;-82
2021/05/29 13:46:46;;;;;;;5.20;1.48;;;15.10;99.90;;;;;;4898728;29;20169;-82
2021/05/29 13:50:09;;;;;;;4.63;1.48;;;15.60;99.90;;;;;;4916572;28;20086;-81
2021/05/29 13:53:35;;;;;;;5.22;1.15;;;15.90;99.90;;;;;;4869832;29;20136;-79
2021/05/29 14:00:22;;;;;;;3.97;1.45;;;15.50;99.90;;;;;;4872944;29;20105;-82
2021/05/29 14:07:22;;;;;;;4.35;1.70;;;15.10;99.90;;;;;;4869460;29;20052;-81
2021/05/29 14:10:00;;;;;;;3.53;2.40;;;14.80;99.90;;;;;;4807782;29;20084;-82
2021/05/29 14:13:20;;;;;;;2.50;2.00;;;14.40;99.90;;;;;;4804590;29;20211;-81
2021/05/29 14:21:28;;;;;;;2.63;1.70;;;14.10;99.90;;;;;;4799629;29;20516;-82
2021/05/29 14:25:32;;;;;;;4.97;1.50;;;14.30;99.90;;;;;;4821444;29;20352;-80
2021/05/29 14:28:17;;;;;;;1.35;1.10;;;14.60;99.90;;;;;;4847512;29;20133;-80
2021/05/29 14:34:53;;;;;;;3.35;1.17;;;14.50;99.90;;;;;;4953246;28;20047;-80
2021/05/29 14:38:18;;;;;;;2.80;1.30;;;14.30;99.90;;;;;;4899775;29;20055;-80
2021/05/29 14:41:26;;;;;;;3.63;1.48;;;14.30;99.90;;;;;;4873234;29;20172;-80
2021/05/29 14:44:24;;;;;;;1.67;1.20;;;14.10;99.90;;;;;;4945771;28;20047;-80
2021/05/29 15:01:26;;;;;;;1.42;1.15;;;14.00;99.90;;;;;;4872686;29;20060;-81
2021/05/29 15:04:58;;;;;;;1.95;1.67;;;14.00;99.90;;;;;;4859096;29;20057;-80
2021/05/29 15:12:15;;;;;;;5.32;1.73;;;13.80;99.90;;;;;;4818202;29;20542;-82
2021/05/29 15:14:53;;;;;;;2.78;1.50;;;13.90;99.90;;;;;;4812387;29;20058;-83
2021/05/29 15:17:35;;;;;;;1.88;1.67;;;13.90;99.90;;;;;;4809726;29;20466;-80
2021/05/29 15:20:02;;;;;;;2.88;1.65;;;14.20;99.90;;;;;;4854105;29;20058;-79
2021/05/29 15:23:21;;;;;;;5.18;1.80;;;14.20;99.90;;;;;;4854939;29;20613;-80
2021/05/29 15:29:41;;;;;;;4.93;1.33;;;14.30;99.90;;;;;;4868353;29;20189;-80
2021/05/29 15:32:16;;;;;;;1.67;1.58;;;14.10;99.90;;;;;;4871253;29;20494;-80
2021/05/29 15:35:10;;;;;;;2.85;1.80;;;13.90;99.90;;;;;;4833693;29;20120;-82
2021/05/29 15:38:13;;;;;;;2.58;1.50;;;14.30;99.90;;;;;;4845248;29;20302;-79
2021/05/29 15:41:11;;;;;;;3.55;1.70;;;14.10;99.90;;;;;;4836365;29;20523;-80
2021/05/29 15:44:22;;;;;;;2.25;1.70;;;14.10;99.90;;;;;;4843414;29;20144;-80
2021/05/29 15:47:54;;;;;;;7.65;1.70;;;14.30;99.90;;;;;;4847670;29;20091;-81
2021/05/29 15:51:10;;;;;;;3.30;1.83;;;14.40;99.90;;;;;;4805885;29;20088;-79
2021/05/29 15:54:05;;;;;;;2.42;1.45;;;14.50;99.90;;;;;;4804005;29;20054;-80
2021/05/29 15:56:56;;;;;;;2.45;1.25;;;14.60;99.90;;;;;;4818235;29;20085;-80
2021/05/29 16:03:28;;;;;;;1.85;1.48;;;14.20;99.90;;;;;;4885479;29;20053;-80
2021/05/29 16:06:25;;;;;;;1.50;1.40;;;14.90;99.90;;;;;;4896391;29;20056;-80
2021/05/29 16:09:20;;;;;;;2.90;1.40;;;15.10;99.90;;;;;;4878652;29;20059;-80
2021/05/29 16:16:13;;;;;;;3.15;1.75;;;14.40;99.90;;;;;;4900363;29;20056;-81
2021/05/29 16:19:16;;;;;;;1.67;1.48;;;14.20;99.90;;;;;;4934441;28;20390;-83
2021/05/29 16:22:53;;;;;;;3.28;1.50;;;14.30;99.90;;;;;;4940484;28;20053;-81
2021/05/29 16:25:48;;;;;;;1.80;1.35;;;14.40;99.90;;;;;;4932319;29;20047;-80
2021/05/29 16:29:08;;;;;;;1.42;1.20;;;14.50;99.90;;;;;;4907989;29;20507;-81
2021/05/29 16:31:50;;;;;;;6.30;1.80;;;14.10;99.90;;;;;;4892735;29;20543;-80
2021/05/29 16:35:22;;;;;;;1.83;1.42;;;14.10;99.90;;;;;;4888573;29;20096;-81
2021/05/29 16:38:06;;;;;;;1.77;1.50;;;13.90;99.90;;;;;;4913369;29;20055;-82
2021/05/29 16:40:59;;;;;;;2.55;1.60;;;13.90;99.90;;;;;;4901638;29;20047;-81
2021/05/29 16:44:24;;;;;;;2.13;1.23;;;13.80;99.90;;;;;;4931188;29;20058;-81
2021/05/29 16:47:58;;;;;;;3.25;1.80;;;13.30;99.90;;;;;;4930810;29;20060;-81
2021/05/29 16:51:34;;;;;;;5.45;1.85;;;13.00;99.90;;;;;;4884671;29;20165;-80
2021/05/29 16:54:30;;;;;;;5.13;1.33;;;12.80;99.90;;;;;;4883414;29;20136;-81
2021/05/29 16:57:15;;;;;;;4.65;1.85;;;12.70;99.90;;;;;;4831430;29;20078;-83
2021/05/29 17:00:58;;;;;;;2.60;1.90;;;12.50;99.90;;;;;;4880052;29;20128;-80
2021/05/29 17:04:23;;;;;;;4.28;2.35;;;12.50;99.90;;;;;;4879998;29;20363;-80
2021/05/29 17:07:47;;;;;;;4.00;1.58;;;12.70;99.90;;;;;;4839623;29;20057;-81
2021/05/29 17:10:38;;;;;;;5.88;2.42;;;12.60;99.90;;;;;;4848622;29;20059;-81
2021/05/29 17:13:46;;;;;;;6.07;2.25;;;12.40;99.90;;;;;;4840495;29;20129;-81
2021/05/29 17:16:33;;;;;;;2.92;1.83;;;12.20;99.90;;;;;;4808816;29;20049;-81
2021/05/29 17:19:15;;;;;;;4.50;2.50;;;12.00;99.90;;;;;;4847792;29;20052;-80
2021/05/29 17:22:24;;;;;;;4.10;2.28;;;11.80;99.90;;;;;;4886968;29;20052;-83
2021/05/29 17:25:09;;;;;;;5.43;2.28;;;11.80;99.90;;;;;;4873014;29;20419;-83
2021/05/29 17:27:35;;;;;;;4.07;2.35;;;11.70;99.90;;;;;;4870042;29;20053;-82
2021/05/29 17:30:26;;;;;;;4.28;2.00;;;11.50;99.90;;;;;;4856159;29;20060;-82
2021/05/29 17:32:51;;;;;;;6.55;2.25;;;11.40;99.90;;;;;;4870340;29;20152;-79